Main page
METAR-TAF:

METAR-TAF

Airports :

Najran Domestic Airport

Najran, Saudi Arabia

latitude: 17-37N, longitude: 044-25E, elevation: 1212 m

Current weather observation

The report was made 1 hour and 13 minutes ago, at 11:00 UTC
Wind 10 kt from the Northeast
Temperature 38°C
Humidity 11%
Pressure 1013 hPa
Visibility 10 km or more
no clouds below 1500 m and no cumulonimbus

METAR: OENG 121100Z 05010KT CAVOK 38/03 Q1013 NOSIG

Time: 15:13 (12:13 UTC)

Forecast

The report was made 1 hour and 13 minutes ago, at 11:00 UTC
Forecast valid from 12 at 12 UTC to 13 at 18 UTC
Wind 12 kt from the North/Northeast
Visibility: 5000 m
widespread dust
Temporary
from 12 at 12 UTC to 12 at 20 UTC
Visibility: 2500 m
Becoming
from 13 at 06 UTC to 13 at 08 UTC
Wind 15 kt from the North/Northeast
Visibility: 4000 m
Blowing dust

TAF: OENG 121100Z 1212/1318 02012KT 5000 DU NSC TEMPO 1212/1220 2500 BECMG 1306/1308 03015KT 4000 BLDU

Weather observations and forecasts of more than 4000 airports (METAR and TAF reports).

The available stations are represented by yellow and red dots on the map.

Hover mouse over dot to see the name of the station.

Then click to see weather observations and forecasts.

To change the map : click on the green buttons with a black cross to zoom in, on the green button with a dash to zoom out, or on the green arrows for adjacent maps.


METAR-TAF: